createdAt,value
2018-12-19T00:03:09.710Z,100604.14
2018-12-19T00:08:20.630Z,100622.29
2018-12-19T00:10:50.136Z,100624.90
2018-12-19T00:13:21.059Z,100611.98
2018-12-19T00:18:32.059Z,100597.41
2018-12-19T00:21:01.367Z,100583.16
2018-12-19T00:23:30.666Z,100564.68
2018-12-19T00:28:41.812Z,100572.06
2018-12-19T00:33:53.667Z,100571.64
2018-12-19T00:39:09.751Z,100587.59
2018-12-19T00:44:22.449Z,100567.00
2018-12-19T00:49:33.564Z,100546.33
2018-12-19T00:54:45.435Z,100531.73
2018-12-19T00:59:56.318Z,100534.41
2018-12-19T01:02:25.632Z,100542.62
2018-12-19T01:07:39.626Z,100545.66
2018-12-19T01:12:53.769Z,100542.19
2018-12-19T01:18:04.787Z,100538.34
2018-12-19T01:23:18.968Z,100529.70
2018-12-19T01:28:29.751Z,100531.48
2018-12-19T01:33:43.738Z,100563.05
2018-12-19T01:38:54.544Z,100557.52
2018-12-19T01:44:08.444Z,100572.52
2018-12-19T01:49:19.269Z,100562.66
2018-12-19T01:54:33.361Z,100573.32
2018-12-19T01:59:46.239Z,100573.17
2018-12-19T02:04:58.234Z,100560.20
2018-12-19T02:10:09.294Z,100559.73
2018-12-19T02:15:21.473Z,100551.00
2018-12-19T02:20:32.403Z,100551.80
2018-12-19T02:23:01.714Z,100570.31
2018-12-19T02:28:12.562Z,100564.32
2018-12-19T02:33:24.500Z,100588.00
2018-12-19T02:38:35.434Z,100576.37
2018-12-19T02:43:47.538Z,100514.18
2018-12-19T02:48:58.390Z,100542.31
2018-12-19T02:54:10.302Z,100554.81
2018-12-19T02:59:21.160Z,100540.62
2018-12-19T03:04:33.195Z,100544.89
2018-12-19T03:09:46.176Z,100523.80
2018-12-19T03:14:58.203Z,100511.05
2018-12-19T03:20:06.203Z,100498.57
2018-12-19T03:25:18.183Z,100470.70
2018-12-19T03:30:31.216Z,100454.78
2018-12-19T03:35:43.207Z,100450.05
2018-12-19T03:40:59.171Z,100466.41
2018-12-19T03:46:11.145Z,100466.83
2018-12-19T03:51:29.123Z,100466.67
2018-12-19T03:56:41.745Z,100450.65
2018-12-19T04:01:52.788Z,100462.20
2018-12-19T04:07:06.807Z,100469.65
2018-12-19T04:12:19.709Z,100446.87
2018-12-19T04:17:31.856Z,100453.36
2018-12-19T04:22:43.681Z,100461.91
2018-12-19T04:27:54.875Z,100460.55
2018-12-19T04:30:24.249Z,100464.75
2018-12-19T04:35:36.546Z,100452.34
2018-12-19T04:40:47.404Z,100461.38
2018-12-19T04:45:59.272Z,100478.92
2018-12-19T04:51:10.432Z,100468.56
2018-12-19T04:56:22.557Z,100467.56
2018-12-19T05:01:35.490Z,100482.91
2018-12-19T05:06:47.527Z,100479.40
2018-12-19T05:11:58.688Z,100484.14
2018-12-19T05:17:11.016Z,100495.33
2018-12-19T05:22:24.041Z,100491.38
2018-12-19T05:27:36.001Z,100497.73
2018-12-19T05:32:49.198Z,100500.22
2018-12-19T05:38:00.102Z,100508.32
2018-12-19T05:43:12.312Z,100509.65
2018-12-19T05:48:23.438Z,100511.30
2018-12-19T05:53:35.505Z,100513.92
2018-12-19T05:58:48.116Z,100533.44
2018-12-19T06:04:02.089Z,100531.40
2018-12-19T06:09:13.116Z,100539.27
2018-12-19T06:14:25.009Z,100545.57
2018-12-19T06:22:16.557Z,100551.00
2018-12-19T06:27:30.459Z,100536.40
2018-12-19T06:32:42.361Z,100545.84
2018-12-19T06:37:53.195Z,100542.79
2018-12-19T06:43:05.377Z,100545.37
2018-12-19T06:48:18.372Z,100539.25
2018-12-19T06:53:30.407Z,100550.70
2018-12-19T06:58:43.330Z,100562.95
2018-12-19T07:03:55.361Z,100555.98
2018-12-19T07:09:08.751Z,100564.47
2018-12-19T07:14:20.637Z,100562.98
2018-12-19T07:19:31.487Z,100564.95
2018-12-19T07:24:43.542Z,100574.31
2018-12-19T07:29:55.505Z,100582.74
2018-12-19T07:35:09.658Z,100589.95
2018-12-19T07:40:20.621Z,100591.52
2018-12-19T07:45:32.519Z,100598.84
2018-12-19T07:50:44.410Z,100597.91
2018-12-19T07:55:57.915Z,100605.50
2018-12-19T08:01:11.113Z,100603.00
2018-12-19T08:06:23.278Z,100611.50
2018-12-19T08:11:37.305Z,100619.36
2018-12-19T08:16:49.501Z,100624.50
2018-12-19T08:22:00.490Z,100630.53
2018-12-19T08:27:12.541Z,100635.37
2018-12-19T08:32:23.741Z,100644.78
2018-12-19T08:37:35.597Z,100641.88
2018-12-19T08:40:05.874Z,100647.28
2018-12-19T08:45:18.163Z,100648.49
2018-12-19T08:50:29.281Z,100660.14
2018-12-19T08:55:41.322Z,100666.01
2018-12-19T09:00:52.753Z,100672.83
2018-12-19T09:06:04.877Z,100679.12
2018-12-19T09:11:18.474Z,100670.87
2018-12-19T09:16:30.364Z,100676.74
2018-12-19T09:21:41.311Z,100684.67
2018-12-19T09:26:53.393Z,100688.77
2018-12-19T09:32:04.922Z,100686.80
2018-12-19T09:34:34.231Z,100694.09
2018-12-19T09:39:45.314Z,100692.65
2018-12-19T09:42:15.750Z,100687.70
2018-12-19T09:44:45.157Z,100685.88
2018-12-19T09:49:56.298Z,100681.16
2018-12-19T09:55:08.358Z,100687.85
2018-12-19T10:00:25.986Z,100677.23
2018-12-19T10:05:39.668Z,100678.12
2018-12-19T10:10:50.896Z,100668.63
2018-12-19T10:16:04.266Z,100665.66
2018-12-19T10:21:16.038Z,100659.39
2018-12-19T10:26:28.791Z,100655.97
2018-12-19T10:31:40.767Z,100651.70
2018-12-19T10:36:54.962Z,100640.25
2018-12-19T10:42:05.938Z,100620.11
2018-12-19T10:47:17.882Z,100613.20
2018-12-19T10:52:28.977Z,100613.27
2018-12-19T10:57:40.980Z,100622.23
2018-12-19T11:03:07.310Z,100614.22
2018-12-19T11:08:18.211Z,100626.50
2018-12-19T11:10:47.580Z,100627.80
2018-12-19T11:15:59.653Z,100626.34
2018-12-19T11:21:10.690Z,100624.04
2018-12-19T11:26:23.158Z,100635.75
2018-12-19T11:31:34.264Z,100625.91
2018-12-19T11:36:46.190Z,100617.88
2018-12-19T11:41:58.144Z,100623.23
2018-12-19T11:47:10.316Z,100623.73
2018-12-19T11:52:21.264Z,100616.02
2018-12-19T11:57:34.408Z,100621.26
2018-12-19T12:02:47.084Z,100605.53
2018-12-19T12:07:58.212Z,100603.23
2018-12-19T12:13:10.262Z,100599.16
2018-12-19T12:18:21.208Z,100603.29
2018-12-19T12:23:33.130Z,100596.35
2018-12-19T12:28:44.227Z,100591.06
2018-12-19T12:33:56.424Z,100585.79
2018-12-19T12:39:09.909Z,100584.48
2018-12-19T12:44:23.872Z,100579.94
2018-12-19T12:49:35.783Z,100581.27
2018-12-19T12:54:48.502Z,100577.42
2018-12-19T12:59:59.683Z,100582.42
2018-12-19T13:05:11.890Z,100577.36
2018-12-19T13:10:22.720Z,100574.61
2018-12-19T13:15:43.924Z,100577.51
2018-12-19T13:20:54.801Z,100571.30
2018-12-19T13:26:08.866Z,100579.60
2018-12-19T13:31:19.828Z,100572.42
2018-12-19T13:36:31.886Z,100569.32
2018-12-19T13:41:43.710Z,100555.54
2018-12-19T13:46:55.653Z,100553.66
2018-12-19T13:52:06.825Z,100547.00
2018-12-19T13:57:18.803Z,100547.41
2018-12-19T14:02:30.777Z,100545.02
2018-12-19T14:07:42.861Z,100546.11
2018-12-19T14:12:55.025Z,100546.97
2018-12-19T14:18:05.941Z,100543.51
2018-12-19T14:23:17.894Z,100535.20
2018-12-19T14:28:28.911Z,100534.28
2018-12-19T14:33:41.018Z,100540.28
2018-12-19T14:38:52.236Z,100555.31
2018-12-19T14:44:04.855Z,100540.64
2018-12-19T14:49:15.949Z,100546.28
2018-12-19T14:51:45.567Z,100539.19
2018-12-19T14:54:14.901Z,100544.98
2018-12-19T14:59:26.020Z,100525.32
2018-12-19T15:04:38.178Z,100529.14
2018-12-19T15:09:49.469Z,100533.28
2018-12-19T15:15:01.562Z,100530.82
2018-12-19T15:20:12.483Z,100526.47
2018-12-19T15:25:26.804Z,100520.48
2018-12-19T15:30:38.174Z,100521.03
2018-12-19T15:35:50.918Z,100517.47
2018-12-19T15:41:02.122Z,100522.86
2018-12-19T15:46:16.378Z,100523.77
2018-12-19T15:51:28.062Z,100535.11
2018-12-19T15:53:57.502Z,100537.80
2018-12-19T15:59:09.493Z,100546.97
2018-12-19T16:04:22.036Z,100552.70
2018-12-19T16:09:32.970Z,100567.70
2018-12-19T16:14:45.055Z,100558.31
2018-12-19T16:19:56.161Z,100554.11
2018-12-19T16:25:08.445Z,100553.31
2018-12-19T16:30:19.268Z,100559.75
2018-12-19T16:35:31.349Z,100560.14
2018-12-19T16:40:43.367Z,100555.41
2018-12-19T16:43:12.773Z,100559.25
2018-12-19T16:48:24.722Z,100548.50
2018-12-19T16:53:36.737Z,100557.59
2018-12-19T16:58:48.021Z,100551.17
2018-12-19T17:03:59.937Z,100548.27
2018-12-19T17:09:10.926Z,100550.70
2018-12-19T17:14:23.007Z,100545.55
2018-12-19T17:19:34.712Z,100552.89
2018-12-19T17:22:04.173Z,100545.84
2018-12-19T17:27:21.390Z,100540.41
2018-12-19T17:32:33.232Z,100542.13
2018-12-19T17:37:45.237Z,100541.20
2018-12-19T17:42:59.502Z,100538.86
2018-12-19T17:48:12.121Z,100544.67
2018-12-19T17:53:24.059Z,100541.66
2018-12-19T17:58:35.087Z,100547.77
2018-12-19T18:01:04.526Z,100541.70
2018-12-19T18:06:16.657Z,100552.23
2018-12-19T18:11:28.793Z,100558.55
2018-12-19T18:16:40.922Z,100560.03
2018-12-19T18:21:48.347Z,100561.25
2018-12-19T18:27:00.373Z,100575.00
2018-12-19T18:32:07.778Z,100566.88
2018-12-19T18:37:19.970Z,100562.99
2018-12-19T18:42:32.905Z,100564.55
2018-12-19T18:47:45.242Z,100577.31
2018-12-19T18:50:14.848Z,100573.42
2018-12-19T18:52:44.378Z,100579.91
2018-12-19T18:57:55.799Z,100569.28
2018-12-19T19:03:16.924Z,100566.76
2018-12-19T19:08:28.138Z,100544.67
2018-12-19T19:13:40.712Z,100551.84
2018-12-19T19:18:53.657Z,100547.05
2018-12-19T19:24:07.905Z,100547.56
2018-12-19T19:29:18.985Z,100551.08
2018-12-19T19:34:32.477Z,100549.14
2018-12-19T19:39:43.514Z,100549.37
2018-12-19T19:42:13.444Z,100551.05
2018-12-19T19:47:30.827Z,100544.25
2018-12-19T19:52:44.174Z,100545.59
2018-12-19T19:57:58.337Z,100546.19
2018-12-19T20:03:14.726Z,100552.09
2018-12-19T20:08:29.088Z,100555.98
2018-12-19T20:13:43.011Z,100555.48
2018-12-19T20:18:57.352Z,100561.05
2018-12-19T20:24:09.757Z,100558.63
2018-12-19T20:29:21.865Z,100553.44
2018-12-19T20:34:34.285Z,100553.00
2018-12-19T20:39:45.674Z,100551.16
2018-12-19T20:44:57.940Z,100553.77
2018-12-19T20:50:09.762Z,100556.34
2018-12-19T20:55:25.327Z,100556.83
2018-12-19T21:00:38.229Z,100559.44
2018-12-19T21:05:50.239Z,100558.13
2018-12-19T21:11:01.186Z,100549.50
2018-12-19T21:13:30.498Z,100546.95
2018-12-19T21:18:49.614Z,100549.22
2018-12-19T21:24:01.797Z,100546.09
2018-12-19T21:29:12.838Z,100546.95
2018-12-19T21:34:24.845Z,100550.03
2018-12-19T21:39:32.365Z,100540.59
2018-12-19T21:44:44.434Z,100538.20
2018-12-19T21:49:55.411Z,100539.61
2018-12-19T21:52:24.780Z,100547.34
2018-12-19T21:54:54.109Z,100538.31
2018-12-19T22:00:07.881Z,100543.83
2018-12-19T22:05:20.077Z,100553.17
2018-12-19T22:10:31.261Z,100551.39
2018-12-19T22:15:44.105Z,100554.25
2018-12-19T22:21:08.279Z,100558.30
2018-12-19T22:26:20.329Z,100560.13
2018-12-19T22:31:31.337Z,100549.54
2018-12-19T22:36:43.378Z,100548.36
2018-12-19T22:42:01.943Z,100546.19
2018-12-19T22:47:14.042Z,100557.10
2018-12-19T22:52:25.218Z,100543.23
2018-12-19T22:57:37.082Z,100536.37
2018-12-19T23:03:08.107Z,100543.34
2018-12-19T23:05:42.918Z,100541.61
2018-12-19T23:10:53.854Z,100526.97
2018-12-19T23:16:05.802Z,100536.83
2018-12-19T23:21:16.940Z,100532.67
2018-12-19T23:26:29.932Z,100533.53
2018-12-19T23:31:45.046Z,100521.64
2018-12-19T23:36:57.176Z,100524.23
2018-12-19T23:42:09.393Z,100524.33
2018-12-19T23:47:21.426Z,100517.95
2018-12-19T23:52:32.727Z,100526.92
2018-12-19T23:57:44.924Z,100510.33
